Time;durP1;ratioP1;P1;durP2;ratioP2;P2;SDS_P1;SDS_P2;PMS_P1;PMS_P2;Temp;Humidity;BMP_temperature;BMP_pressure;BME280_temperature;BME280_humidity;BME280_pressure;Samples;Min_cycle;Max_cycle;Signal;HPM_P1;HPM_P2
2021/12/26 00:01:39;;;;;;;12.75;7.40;;;;;;;;;;5018228;28;20050;-93
2021/12/26 00:04:05;;;;;;;13.05;7.00;;;;;;;;;;5018454;28;20027;-93
2021/12/26 00:06:31;;;;;;;14.07;7.60;;;;;;;;;;5018296;28;20040;-93
2021/12/26 00:08:59;;;;;;;14.20;7.07;;;;;;;;;;5019216;28;20022;-93
2021/12/26 00:11:31;;;;;;;12.27;7.20;;;;;;;;;;5018371;28;20022;-93
2021/12/26 00:14:09;;;;;;;14.25;7.32;;;;;;;;;;5034853;28;20031;-93
2021/12/26 00:16:35;;;;;;;12.27;7.45;;;;;;;;;;5018804;28;20040;-93
2021/12/26 00:19:16;;;;;;;12.52;7.32;;;;;;;;;;5018558;28;20022;-92
2021/12/26 00:21:47;;;;;;;11.13;6.38;;;;;;;;;;5018480;28;20042;-93
2021/12/26 00:24:16;;;;;;;12.90;6.57;;;;;;;;;;5018753;28;20018;-93
2021/12/26 00:26:42;;;;;;;13.10;7.57;;;;;;;;;;5018209;28;20053;-93
2021/12/26 00:29:14;;;;;;;12.10;6.95;;;;;;;;;;5018199;28;20049;-93
2021/12/26 00:31:40;;;;;;;13.13;7.63;;;;;;;;;;5018207;28;20040;-92
2021/12/26 00:34:06;;;;;;;12.02;6.78;;;;;;;;;;5018345;28;20037;-92
2021/12/26 00:36:38;;;;;;;10.10;6.63;;;;;;;;;;5013848;28;20064;-92
2021/12/26 00:39:05;;;;;;;12.55;7.00;;;;;;;;;;5010866;28;20049;-92
2021/12/26 00:41:33;;;;;;;12.40;7.68;;;;;;;;;;5012345;28;20038;-93
2021/12/26 00:44:05;;;;;;;13.95;7.32;;;;;;;;;;5011270;28;20042;-93
2021/12/26 00:46:37;;;;;;;12.70;7.18;;;;;;;;;;5011158;28;20038;-93
2021/12/26 00:49:04;;;;;;;14.95;7.20;;;;;;;;;;5010735;28;20042;-93
2021/12/26 00:51:30;;;;;;;14.18;7.15;;;;;;;;;;5010378;28;20040;-93
2021/12/26 00:54:17;;;;;;;11.50;6.60;;;;;;;;;;5011308;28;20038;-94
2021/12/26 00:56:43;;;;;;;11.68;6.43;;;;;;;;;;5008063;28;20057;-92
2021/12/26 00:59:09;;;;;;;12.85;7.15;;;;;;;;;;5010218;28;20049;-92
2021/12/26 01:01:36;;;;;;;12.50;6.97;;;;;;;;;;5010343;28;20038;-92
2021/12/26 01:04:02;;;;;;;13.40;7.35;;;;;;;;;;5025001;28;20047;-92
2021/12/26 01:06:34;;;;;;;12.20;6.97;;;;;;;;;;5008936;28;20045;-92
2021/12/26 01:09:08;;;;;;;13.55;8.35;;;;;;;;;;5009552;28;20042;-93
2021/12/26 01:11:37;;;;;;;11.75;7.18;;;;;;;;;;5010547;28;20054;-92
2021/12/26 01:14:08;;;;;;;12.13;6.82;;;;;;;;;;5011388;28;20043;-93
2021/12/26 01:16:35;;;;;;;12.18;7.32;;;;;;;;;;5007281;28;20034;-93
2021/12/26 01:19:15;;;;;;;11.32;7.05;;;;;;;;;;5009393;28;20380;-93
2021/12/26 01:21:43;;;;;;;13.20;6.93;;;;;;;;;;5011232;28;20035;-93
2021/12/26 01:24:19;;;;;;;14.15;7.57;;;;;;;;;;5016623;28;20026;-93
2021/12/26 01:26:45;;;;;;;12.00;7.22;;;;;;;;;;5016158;28;20042;-92
2021/12/26 01:29:14;;;;;;;12.93;7.53;;;;;;;;;;5012217;28;20065;-93
2021/12/26 01:31:40;;;;;;;12.85;7.00;;;;;;;;;;5006144;28;20049;-93
2021/12/26 01:34:09;;;;;;;12.25;7.05;;;;;;;;;;5008618;28;20038;-93
2021/12/26 01:36:36;;;;;;;14.57;7.88;;;;;;;;;;5007038;28;20034;-93
2021/12/26 01:39:08;;;;;;;13.60;7.32;;;;;;;;;;5008733;28;20038;-92
2021/12/26 01:41:46;;;;;;;12.68;7.63;;;;;;;;;;5007259;28;20039;-93
2021/12/26 01:44:21;;;;;;;14.02;7.03;;;;;;;;;;5009246;28;20046;-93
2021/12/26 01:46:49;;;;;;;13.13;7.68;;;;;;;;;;5008400;28;20027;-93
2021/12/26 01:49:24;;;;;;;15.40;8.23;;;;;;;;;;5007967;28;20046;-93
2021/12/26 01:51:53;;;;;;;13.60;7.38;;;;;;;;;;5007623;28;20054;-93
2021/12/26 01:57:21;;;;;;;14.70;7.65;;;;;;;;;;5013134;28;20038;-94
2021/12/26 01:59:50;;;;;;;12.90;6.95;;;;;;;;;;5005009;28;20121;-92
2021/12/26 02:02:16;;;;;;;13.18;7.68;;;;;;;;;;5003114;28;20052;-93
2021/12/26 02:04:43;;;;;;;14.30;7.30;;;;;;;;;;5005493;28;20060;-93
2021/12/26 02:07:14;;;;;;;13.25;7.22;;;;;;;;;;5007452;28;20038;-93
2021/12/26 02:09:40;;;;;;;;;;;;;;;;;;5009123;28;20062;-93
2021/12/26 02:12:15;;;;;;;14.35;7.68;;;;;;;;;;5008476;28;19913;-92
2021/12/26 02:14:41;;;;;;;12.23;6.85;;;;;;;;;;5005468;28;20046;-93
2021/12/26 02:17:07;;;;;;;14.13;7.32;;;;;;;;;;5003827;28;20042;-93
2021/12/26 02:19:33;;;;;;;15.13;8.32;;;;;;;;;;5005062;28;20042;-93
2021/12/26 02:22:09;;;;;;;13.50;7.72;;;;;;;;;;5012493;28;20136;-92
2021/12/26 02:27:30;;;;;;;13.27;6.80;;;;;;;;;;5014141;28;20026;-94
2021/12/26 02:27:42;;;;;;;15.43;8.02;;;;;;;;;;5012891;28;20048;-93
2021/12/26 02:30:16;;;;;;;14.02;7.93;;;;;;;;;;5014126;28;20036;-93
2021/12/26 02:32:46;;;;;;;14.57;7.47;;;;;;;;;;5031431;28;20034;-93
2021/12/26 02:35:16;;;;;;;13.80;7.43;;;;;;;;;;5017277;28;20042;-92
2021/12/26 02:37:42;;;;;;;12.85;7.63;;;;;;;;;;5014936;28;20044;-92
2021/12/26 02:40:12;;;;;;;13.27;8.02;;;;;;;;;;5016341;28;20027;-92
2021/12/26 02:42:38;;;;;;;14.25;8.18;;;;;;;;;;5017689;28;20045;-94
2021/12/26 02:45:10;;;;;;;15.25;8.07;;;;;;;;;;5017368;28;20034;-94
2021/12/26 02:47:40;;;;;;;13.63;7.97;;;;;;;;;;5017087;28;20038;-93
2021/12/26 02:50:11;;;;;;;18.13;7.57;;;;;;;;;;5016823;28;20045;-92
2021/12/26 02:52:43;;;;;;;12.70;7.35;;;;;;;;;;5016825;28;20037;-91
2021/12/26 02:55:11;;;;;;;14.35;8.07;;;;;;;;;;5018701;28;20034;-92
2021/12/26 02:57:40;;;;;;;15.00;8.32;;;;;;;;;;5016137;28;20038;-92
2021/12/26 03:00:14;;;;;;;13.77;8.15;;;;;;;;;;5017033;28;20033;-93
2021/12/26 03:02:45;;;;;;;12.93;7.75;;;;;;;;;;5017453;28;20030;-93
2021/12/26 03:05:14;;;;;;;15.70;8.38;;;;;;;;;;5016590;28;20038;-92
2021/12/26 03:07:40;;;;;;;15.77;8.88;;;;;;;;;;5016562;28;20032;-93
2021/12/26 03:10:11;;;;;;;16.17;8.02;;;;;;;;;;5016494;28;20041;-92
2021/12/26 03:12:41;;;;;;;15.48;8.20;;;;;;;;;;5033028;28;20030;-92
2021/12/26 03:15:10;;;;;;;13.73;7.70;;;;;;;;;;5016449;28;20026;-93
2021/12/26 03:17:41;;;;;;;15.30;8.90;;;;;;;;;;5016367;28;20049;-92
2021/12/26 03:20:09;;;;;;;16.40;9.32;;;;;;;;;;5016450;28;20026;-93
2021/12/26 03:22:35;;;;;;;14.48;7.97;;;;;;;;;;5016580;28;20054;-92
2021/12/26 03:25:01;;;;;;;13.52;7.55;;;;;;;;;;5018425;28;20026;-93
2021/12/26 03:27:27;;;;;;;14.00;8.20;;;;;;;;;;5017095;28;20030;-92
2021/12/26 03:29:53;;;;;;;16.13;8.57;;;;;;;;;;5016897;28;20026;-92
2021/12/26 03:32:19;;;;;;;11.23;7.03;;;;;;;;;;5015859;28;20026;-93
2021/12/26 03:34:49;;;;;;;17.25;8.77;;;;;;;;;;5015939;28;20026;-93
2021/12/26 03:37:16;;;;;;;15.05;8.52;;;;;;;;;;5015879;28;20022;-92
2021/12/26 03:39:42;;;;;;;14.70;8.50;;;;;;;;;;5015962;28;20040;-92
2021/12/26 03:42:11;;;;;;;15.68;8.68;;;;;;;;;;5015987;28;20060;-92
2021/12/26 03:44:40;;;;;;;16.20;8.50;;;;;;;;;;5015821;28;20033;-91
2021/12/26 03:47:09;;;;;;;15.50;8.02;;;;;;;;;;5015864;28;20026;-92
2021/12/26 03:49:35;;;;;;;15.50;8.30;;;;;;;;;;5015895;28;20040;-91
2021/12/26 03:52:04;;;;;;;13.25;7.57;;;;;;;;;;5015438;28;20038;-91
2021/12/26 03:54:29;;;;;;;13.95;8.00;;;;;;;;;;5015589;28;20030;-91
2021/12/26 03:56:55;;;;;;;19.05;8.10;;;;;;;;;;5015607;28;20034;-91
2021/12/26 03:59:21;;;;;;;15.10;8.43;;;;;;;;;;5015852;28;20038;-93
2021/12/26 04:01:47;;;;;;;12.95;7.82;;;;;;;;;;5015766;28;20034;-92
2021/12/26 04:04:19;;;;;;;14.57;8.10;;;;;;;;;;5015625;28;20050;-92
2021/12/26 04:06:48;;;;;;;15.07;7.88;;;;;;;;;;5016983;28;20030;-92
2021/12/26 04:09:15;;;;;;;16.10;8.50;;;;;;;;;;5017108;28;20038;-93
2021/12/26 04:11:42;;;;;;;14.88;8.25;;;;;;;;;;5016951;28;20294;-93
2021/12/26 04:14:16;;;;;;;17.33;8.63;;;;;;;;;;5015812;28;20035;-91
2021/12/26 04:16:42;;;;;;;18.27;8.75;;;;;;;;;;5017015;28;20030;-91
2021/12/26 04:19:14;;;;;;;15.73;8.23;;;;;;;;;;5019703;28;20055;-92
2021/12/26 04:21:40;;;;;;;14.73;7.95;;;;;;;;;;5019485;28;20061;-93
2021/12/26 04:24:09;;;;;;;15.35;8.35;;;;;;;;;;5019703;28;20050;-92
2021/12/26 04:26:41;;;;;;;16.00;8.52;;;;;;;;;;5019273;28;20036;-93
2021/12/26 04:29:08;;;;;;;15.55;8.95;;;;;;;;;;5052310;28;20054;-92
2021/12/26 04:31:37;;;;;;;17.40;9.07;;;;;;;;;;5038532;28;20026;-92
2021/12/26 04:34:04;;;;;;;15.52;9.07;;;;;;;;;;5039079;28;20025;-92
2021/12/26 04:36:30;;;;;;;15.80;8.50;;;;;;;;;;5038980;28;20037;-92
2021/12/26 04:38:56;;;;;;;16.13;9.45;;;;;;;;;;5038879;28;20030;-94
2021/12/26 04:41:22;;;;;;;14.70;8.98;;;;;;;;;;5039151;28;20033;-92
2021/12/26 04:44:06;;;;;;;16.77;9.15;;;;;;;;;;5039218;28;20022;-93
2021/12/26 04:46:32;;;;;;;18.33;8.82;;;;;;;;;;5039875;28;20018;-93
2021/12/26 04:48:58;;;;;;;15.10;8.82;;;;;;;;;;5038761;28;20105;-93
2021/12/26 04:51:23;;;;;;;15.27;8.98;;;;;;;;;;5038597;28;20061;-93
2021/12/26 04:53:49;;;;;;;15.75;8.70;;;;;;;;;;5037984;28;20053;-93
2021/12/26 04:56:15;;;;;;;15.68;8.93;;;;;;;;;;5039152;28;20038;-93
2021/12/26 04:58:41;;;;;;;15.73;8.77;;;;;;;;;;5024133;28;20031;-93
2021/12/26 05:01:07;;;;;;;16.70;9.82;;;;;;;;;;5020950;28;20027;-93
2021/12/26 05:03:33;;;;;;;17.13;8.50;;;;;;;;;;5021224;28;20053;-95
2021/12/26 05:05:59;;;;;;;17.10;9.00;;;;;;;;;;5021558;28;20032;-94
2021/12/26 05:08:35;;;;;;;16.42;9.32;;;;;;;;;;5021373;28;20022;-95
2021/12/26 05:11:06;;;;;;;15.75;8.75;;;;;;;;;;5021721;28;20034;-93
2021/12/26 05:13:35;;;;;;;15.00;8.68;;;;;;;;;;5022267;28;20032;-93
2021/12/26 05:16:01;;;;;;;14.95;8.55;;;;;;;;;;5013149;28;20044;-94
2021/12/26 05:18:27;;;;;;;17.83;9.70;;;;;;;;;;5007454;28;20034;-93
2021/12/26 05:21:03;;;;;;;15.60;8.80;;;;;;;;;;5004652;28;20188;-92
2021/12/26 05:23:32;;;;;;;15.35;8.90;;;;;;;;;;5001753;28;20038;-93
2021/12/26 05:25:59;;;;;;;17.77;8.65;;;;;;;;;;5002681;28;20050;-93
2021/12/26 05:28:31;;;;;;;15.82;8.20;;;;;;;;;;4999227;28;20039;-94
2021/12/26 05:30:56;;;;;;;15.63;8.98;;;;;;;;;;4997868;28;20057;-94
2021/12/26 05:33:22;;;;;;;16.23;8.95;;;;;;;;;;4999308;28;20047;-93
2021/12/26 05:35:48;;;;;;;16.08;8.77;;;;;;;;;;5004257;28;20049;-93
2021/12/26 05:38:18;;;;;;;15.70;8.52;;;;;;;;;;5012085;28;20069;-92
2021/12/26 05:40:44;;;;;;;15.60;8.98;;;;;;;;;;5016010;28;20026;-93
2021/12/26 05:43:09;;;;;;;15.63;8.52;;;;;;;;;;5001693;28;20035;-79
2021/12/26 05:45:35;;;;;;;15.63;9.18;;;;;;;;;;4993220;28;20110;-78
2021/12/26 05:48:07;;;;;;;17.52;9.73;;;;;;;;;;4996303;28;20019;-85
2021/12/26 05:50:32;;;;;;;16.27;8.43;;;;;;;;;;5006204;28;20030;-86
2021/12/26 05:52:58;;;;;;;18.92;10.00;;;;;;;;;;5005129;28;20026;-86
2021/12/26 05:55:31;;;;;;;16.67;9.27;;;;;;;;;;5009886;28;20034;-88
2021/12/26 05:57:57;;;;;;;16.40;9.02;;;;;;;;;;5015052;28;20044;-91
2021/12/26 06:00:23;;;;;;;15.90;8.98;;;;;;;;;;5016675;28;20272;-88
2021/12/26 06:02:50;;;;;;;15.15;8.75;;;;;;;;;;5006241;28;20046;-86
2021/12/26 06:05:19;;;;;;;17.13;8.73;;;;;;;;;;5009102;28;20010;-89
2021/12/26 06:07:45;;;;;;;17.20;9.18;;;;;;;;;;5009438;28;20018;-90
2021/12/26 06:10:11;;;;;;;17.58;9.35;;;;;;;;;;5008167;28;20078;-85
2021/12/26 06:12:37;;;;;;;14.60;8.95;;;;;;;;;;4999909;28;20468;-84
2021/12/26 06:15:04;;;;;;;16.45;9.15;;;;;;;;;;4997668;28;20038;-84
2021/12/26 06:17:31;;;;;;;18.40;10.23;;;;;;;;;;4969796;28;20480;-85
2021/12/26 06:19:56;;;;;;;19.33;10.45;;;;;;;;;;4995048;28;20487;-84
2021/12/26 06:22:22;;;;;;;17.85;9.77;;;;;;;;;;5012379;28;20022;-84
2021/12/26 06:24:48;;;;;;;19.55;10.35;;;;;;;;;;5011025;28;20124;-84
2021/12/26 06:27:14;;;;;;;20.85;9.80;;;;;;;;;;5012433;28;20029;-85
2021/12/26 06:29:40;;;;;;;20.40;10.55;;;;;;;;;;5012095;28;20056;-84
2021/12/26 06:32:07;;;;;;;17.83;9.77;;;;;;;;;;4992268;28;20101;-83
2021/12/26 06:34:32;;;;;;;17.58;9.32;;;;;;;;;;4992714;28;20031;-84
2021/12/26 06:36:59;;;;;;;18.92;10.25;;;;;;;;;;4992622;28;20085;-82
2021/12/26 06:39:25;;;;;;;16.30;9.70;;;;;;;;;;4992211;28;20035;-83
2021/12/26 06:41:51;;;;;;;18.38;8.93;;;;;;;;;;4991318;28;20028;-83
2021/12/26 06:44:16;;;;;;;17.25;10.18;;;;;;;;;;4989746;28;20113;-83
2021/12/26 06:46:42;;;;;;;16.50;9.30;;;;;;;;;;4991798;28;20030;-83
2021/12/26 06:49:08;;;;;;;16.50;9.98;;;;;;;;;;4993864;28;20066;-83
2021/12/26 06:51:34;;;;;;;18.17;10.07;;;;;;;;;;4996156;28;20072;-82
2021/12/26 06:54:00;;;;;;;17.80;9.88;;;;;;;;;;4993951;28;20061;-84
2021/12/26 06:56:26;;;;;;;19.55;10.57;;;;;;;;;;4993245;28;20520;-86
2021/12/26 06:58:55;;;;;;;16.52;9.65;;;;;;;;;;4993894;28;20105;-85
2021/12/26 07:01:20;;;;;;;21.08;10.27;;;;;;;;;;4995001;28;20034;-84
2021/12/26 07:03:54;;;;;;;17.45;9.50;;;;;;;;;;4996937;28;20040;-84
2021/12/26 07:06:20;;;;;;;20.27;9.98;;;;;;;;;;5003301;28;20041;-85
2021/12/26 07:08:46;;;;;;;17.38;9.48;;;;;;;;;;5000921;28;20014;-84
2021/12/26 07:11:15;;;;;;;18.38;10.10;;;;;;;;;;5013490;28;20045;-85
2021/12/26 07:13:40;;;;;;;17.17;9.70;;;;;;;;;;5014338;28;20022;-85
2021/12/26 07:16:06;;;;;;;17.17;10.10;;;;;;;;;;5013862;28;20029;-92
2021/12/26 07:18:35;;;;;;;19.55;9.23;;;;;;;;;;5013369;28;20030;-89
2021/12/26 07:21:01;;;;;;;19.98;10.23;;;;;;;;;;4996871;28;20042;-87
2021/12/26 07:23:27;;;;;;;19.52;9.60;;;;;;;;;;4990810;28;20408;-82
2021/12/26 07:25:53;;;;;;;19.92;9.80;;;;;;;;;;4990073;28;20030;-85
2021/12/26 07:28:18;;;;;;;18.10;9.68;;;;;;;;;;4991257;28;20049;-83
2021/12/26 07:30:44;;;;;;;18.25;9.85;;;;;;;;;;4991720;28;20073;-84
2021/12/26 07:33:10;;;;;;;18.17;9.00;;;;;;;;;;4989604;28;20084;-84
2021/12/26 07:35:36;;;;;;;21.95;10.52;;;;;;;;;;4991300;28;20063;-85
2021/12/26 07:38:02;;;;;;;19.25;10.20;;;;;;;;;;4989260;28;20165;-84
2021/12/26 07:40:28;;;;;;;16.75;9.18;;;;;;;;;;4991797;28;20531;-88
2021/12/26 07:42:54;;;;;;;17.58;9.80;;;;;;;;;;4992280;28;20038;-89
2021/12/26 07:45:22;;;;;;;19.60;10.68;;;;;;;;;;4992654;28;20034;-86
2021/12/26 07:47:48;;;;;;;17.15;9.32;;;;;;;;;;4991154;28;20031;-86
2021/12/26 07:50:14;;;;;;;19.48;9.43;;;;;;;;;;4990738;28;20035;-86
2021/12/26 07:52:42;;;;;;;17.15;9.20;;;;;;;;;;4992379;28;20057;-86
2021/12/26 07:55:12;;;;;;;17.92;9.32;;;;;;;;;;4991090;28;20043;-86
2021/12/26 07:57:39;;;;;;;16.25;9.45;;;;;;;;;;4952598;28;1135705;-86
2021/12/26 08:00:07;;;;;;;20.90;10.23;;;;;;;;;;4994876;28;20049;-89
2021/12/26 08:02:32;;;;;;;18.67;9.82;;;;;;;;;;4992549;28;20023;-86
2021/12/26 08:05:02;;;;;;;20.33;9.90;;;;;;;;;;4990476;28;20073;-85
2021/12/26 08:07:28;;;;;;;19.50;9.95;;;;;;;;;;4993199;28;20038;-85
2021/12/26 08:09:54;;;;;;;18.23;9.52;;;;;;;;;;4991582;28;20493;-86
2021/12/26 08:12:20;;;;;;;19.27;10.13;;;;;;;;;;4991750;28;20113;-84
2021/12/26 08:14:46;;;;;;;17.60;9.75;;;;;;;;;;4991521;28;20034;-83
2021/12/26 08:17:12;;;;;;;20.92;11.00;;;;;;;;;;4991289;28;20076;-84
2021/12/26 08:19:38;;;;;;;20.92;11.13;;;;;;;;;;4995247;28;20058;-88
2021/12/26 08:22:04;;;;;;;20.85;10.40;;;;;;;;;;5011684;28;20555;-91
2021/12/26 08:24:30;;;;;;;21.80;11.23;;;;;;;;;;5010794;28;20383;-86
2021/12/26 08:26:56;;;;;;;28.23;15.27;;;;;;;;;;5004928;28;20105;-91
2021/12/26 08:29:23;;;;;;;45.15;23.92;;;;;;;;;;4993236;28;20046;-90
2021/12/26 08:31:55;;;;;;;21.15;11.13;;;;;;;;;;4996190;28;20038;-92
2021/12/26 08:34:22;;;;;;;18.65;9.52;;;;;;;;;;4981345;28;20050;-93
2021/12/26 08:36:57;;;;;;;19.20;10.15;;;;;;;;;;4996839;28;20034;-91
2021/12/26 08:39:24;;;;;;;17.77;10.13;;;;;;;;;;4991508;28;20042;-89
2021/12/26 08:41:51;;;;;;;17.40;9.48;;;;;;;;;;4991211;28;20028;-90
2021/12/26 08:44:16;;;;;;;18.95;9.65;;;;;;;;;;4993478;28;20026;-89
2021/12/26 08:46:43;;;;;;;19.60;9.88;;;;;;;;;;4991221;28;20392;-89
2021/12/26 08:49:10;;;;;;;18.80;9.43;;;;;;;;;;4992980;28;20034;-89
2021/12/26 08:51:36;;;;;;;17.55;9.50;;;;;;;;;;4992669;28;20375;-87
2021/12/26 08:54:02;;;;;;;18.60;9.40;;;;;;;;;;4993258;28;20026;-88
2021/12/26 08:56:29;;;;;;;18.08;10.27;;;;;;;;;;4993598;28;20632;-88
2021/12/26 08:58:55;;;;;;;18.67;10.27;;;;;;;;;;4992844;28;20043;-89
2021/12/26 09:01:21;;;;;;;20.75;9.30;;;;;;;;;;4993275;28;20022;-90
2021/12/26 09:03:47;;;;;;;19.38;10.25;;;;;;;;;;4997089;28;20063;-90
2021/12/26 09:06:13;;;;;;;17.42;9.88;;;;;;;;;;5012291;28;20038;-88
2021/12/26 09:08:39;;;;;;;31.95;15.98;;;;;;;;;;4997627;28;20030;-89
2021/12/26 09:11:05;;;;;;;20.02;10.77;;;;;;;;;;4996613;28;20364;-88
2021/12/26 09:13:33;;;;;;;20.45;10.15;;;;;;;;;;4995464;28;20042;-90
2021/12/26 09:15:59;;;;;;;21.45;10.95;;;;;;;;;;4995652;28;20038;-89
2021/12/26 09:18:26;;;;;;;19.55;10.93;;;;;;;;;;4995798;28;20571;-89
2021/12/26 09:20:51;;;;;;;18.13;9.75;;;;;;;;;;4995615;28;20034;-89
2021/12/26 09:23:17;;;;;;;21.10;10.18;;;;;;;;;;5008322;28;20041;-88
2021/12/26 09:25:43;;;;;;;21.38;11.05;;;;;;;;;;4995537;28;20030;-90
2021/12/26 09:28:09;;;;;;;23.20;11.18;;;;;;;;;;4993873;28;20496;-89
2021/12/26 09:30:39;;;;;;;20.08;10.57;;;;;;;;;;4995409;28;20039;-89
2021/12/26 09:33:05;;;;;;;23.35;11.15;;;;;;;;;;5010332;28;20042;-89
2021/12/26 09:35:32;;;;;;;21.08;11.00;;;;;;;;;;5010363;28;20357;-88
2021/12/26 09:37:57;;;;;;;20.83;10.23;;;;;;;;;;4996606;28;20033;-87
2021/12/26 09:40:23;;;;;;;16.95;9.32;;;;;;;;;;4994335;28;20078;-88
2021/12/26 09:42:50;;;;;;;19.52;10.40;;;;;;;;;;4995005;28;20054;-89
2021/12/26 09:45:19;;;;;;;24.85;11.13;;;;;;;;;;4994173;28;20034;-88
2021/12/26 09:47:49;;;;;;;19.05;10.30;;;;;;;;;;4995629;28;20049;-89
2021/12/26 09:50:20;;;;;;;18.95;10.85;;;;;;;;;;4994857;28;20061;-86
2021/12/26 09:52:48;;;;;;;22.33;11.23;;;;;;;;;;4994895;28;20522;-89
2021/12/26 09:55:15;;;;;;;21.20;10.98;;;;;;;;;;4990590;28;20615;-88
2021/12/26 09:57:41;;;;;;;19.38;9.82;;;;;;;;;;4981161;28;20516;-90
2021/12/26 10:00:19;;;;;;;22.30;11.02;;;;;;;;;;4990665;28;20046;-87
2021/12/26 10:02:45;;;;;;;19.45;10.73;;;;;;;;;;4982567;28;20034;-88
2021/12/26 10:05:11;;;;;;;21.98;10.73;;;;;;;;;;4974439;28;20027;-88
2021/12/26 10:07:38;;;;;;;20.73;10.95;;;;;;;;;;4989058;28;20396;-90
2021/12/26 10:10:07;;;;;;;18.98;10.90;;;;;;;;;;4977922;28;20260;-86
2021/12/26 10:12:42;;;;;;;21.33;11.85;;;;;;;;;;4987005;28;20038;-85
2021/12/26 10:15:09;;;;;;;23.55;11.90;;;;;;;;;;5010268;28;20036;-87
2021/12/26 10:17:34;;;;;;;23.48;12.30;;;;;;;;;;4998160;28;20042;-85
2021/12/26 10:20:08;;;;;;;24.58;12.30;;;;;;;;;;4993274;28;20483;-86
2021/12/26 10:22:35;;;;;;;23.58;12.52;;;;;;;;;;4993057;28;20038;-89
2021/12/26 10:25:11;;;;;;;24.55;12.32;;;;;;;;;;4992435;28;20061;-86
2021/12/26 10:27:40;;;;;;;24.90;12.90;;;;;;;;;;4992886;28;20030;-88
2021/12/26 10:30:07;;;;;;;24.48;12.95;;;;;;;;;;4992830;28;20050;-87
2021/12/26 10:32:38;;;;;;;25.02;12.93;;;;;;;;;;5004514;28;20049;-85
2021/12/26 10:35:13;;;;;;;24.08;12.32;;;;;;;;;;4984245;28;20030;-88
2021/12/26 10:37:45;;;;;;;27.67;14.10;;;;;;;;;;4990996;28;20587;-89
2021/12/26 10:40:31;;;;;;;22.90;11.65;;;;;;;;;;4990908;28;20050;-90
2021/12/26 10:42:59;;;;;;;27.38;13.27;;;;;;;;;;4992461;28;20130;-90
2021/12/26 10:45:28;;;;;;;25.08;12.65;;;;;;;;;;4998598;28;20045;-89
2021/12/26 10:48:04;;;;;;;23.08;12.10;;;;;;;;;;4999469;28;20035;-88
2021/12/26 10:50:35;;;;;;;21.58;12.57;;;;;;;;;;4997250;28;20249;-93
2021/12/26 10:53:05;;;;;;;24.42;12.20;;;;;;;;;;5003068;28;20555;-90
2021/12/26 10:55:51;;;;;;;46.33;24.35;;;;;;;;;;5000595;28;20034;-92
2021/12/26 10:58:24;;;;;;;25.25;12.95;;;;;;;;;;5006270;28;20045;-91
2021/12/26 11:01:50;;;;;;;;;;;;;;;;;;;;;
2021/12/26 11:04:24;;;;;;;24.33;12.23;;;;;;;;;;5205043;22;20053;-92
2021/12/26 11:12:45;;;;;;;23.08;12.73;;;;;;;;;;5444930;22;20057;-86
2021/12/26 11:15:17;;;;;;;24.30;12.43;;;;;;;;;;5049946;28;20046;-88
2021/12/26 11:17:49;;;;;;;28.33;13.00;;;;;;;;;;5052412;28;20026;-90
2021/12/26 11:20:35;;;;;;;24.38;13.18;;;;;;;;;;5018205;28;20050;-93
2021/12/26 11:23:21;;;;;;;23.35;13.38;;;;;;;;;;5039850;28;20411;-92
2021/12/26 11:26:11;;;;;;;26.63;13.43;;;;;;;;;;5043162;28;20041;-92
2021/12/26 11:28:40;;;;;;;25.75;13.13;;;;;;;;;;5048044;28;20420;-92
2021/12/26 11:31:10;;;;;;;26.63;13.18;;;;;;;;;;5026495;28;20029;-93
2021/12/26 11:33:56;;;;;;;22.85;12.07;;;;;;;;;;5034221;28;20030;-91
2021/12/26 11:36:24;;;;;;;25.92;13.27;;;;;;;;;;5040215;28;20048;-94
2021/12/26 11:38:53;;;;;;;26.52;13.00;;;;;;;;;;5037044;28;20037;-93
2021/12/26 11:41:42;;;;;;;25.88;12.80;;;;;;;;;;5033145;28;20038;-91
2021/12/26 11:44:37;;;;;;;26.33;12.75;;;;;;;;;;5021084;28;20042;-90
2021/12/26 11:47:24;;;;;;;24.83;13.40;;;;;;;;;;5023109;28;20025;-88
2021/12/26 11:50:07;;;;;;;25.42;12.82;;;;;;;;;;5029377;28;20029;-89
2021/12/26 11:53:02;;;;;;;26.58;13.27;;;;;;;;;;5030939;28;20022;-91
2021/12/26 11:55:46;;;;;;;24.70;12.07;;;;;;;;;;5304864;22;20526;-91
2021/12/26 11:58:49;;;;;;;27.10;13.18;;;;;;;;;;5036087;28;20422;-90
2021/12/26 12:01:19;;;;;;;27.77;13.52;;;;;;;;;;5034997;28;20029;-91
2021/12/26 12:03:45;;;;;;;28.55;13.40;;;;;;;;;;5044765;28;20045;-90
2021/12/26 12:06:25;;;;;;;27.77;13.93;;;;;;;;;;5032128;28;20030;-89
2021/12/26 12:08:53;;;;;;;26.30;13.07;;;;;;;;;;5030874;28;20041;-89
2021/12/26 12:11:19;;;;;;;26.60;13.23;;;;;;;;;;5039519;28;20483;-89
2021/12/26 12:13:48;;;;;;;26.08;13.57;;;;;;;;;;5033271;28;20034;-89
2021/12/26 12:16:27;;;;;;;25.08;13.43;;;;;;;;;;5036466;28;20384;-90
2021/12/26 12:18:55;;;;;;;29.67;14.38;;;;;;;;;;5031965;28;20032;-93
2021/12/26 12:21:45;;;;;;;24.70;12.13;;;;;;;;;;5035322;28;20041;-92
2021/12/26 12:24:17;;;;;;;25.45;12.32;;;;;;;;;;5039315;28;20507;-90
2021/12/26 12:27:13;;;;;;;28.50;14.82;;;;;;;;;;5040319;28;20025;-92
2021/12/26 12:29:42;;;;;;;22.70;13.10;;;;;;;;;;5040022;28;20053;-90
2021/12/26 12:32:08;;;;;;;27.77;13.38;;;;;;;;;;5039979;28;20033;-91
2021/12/26 12:35:19;;;;;;;24.25;13.55;;;;;;;;;;5041612;28;20083;-90
2021/12/26 12:37:47;;;;;;;24.42;13.40;;;;;;;;;;4963330;28;20074;-92
2021/12/26 12:40:25;;;;;;;25.55;13.05;;;;;;;;;;4966069;28;20086;-92
2021/12/26 12:43:07;;;;;;;23.92;13.15;;;;;;;;;;4957502;29;20537;-90
2021/12/26 12:45:52;;;;;;;26.25;12.57;;;;;;;;;;4965014;29;20039;-92
2021/12/26 12:48:51;;;;;;;24.83;13.60;;;;;;;;;;4961658;28;20050;-92
2021/12/26 12:51:18;;;;;;;27.70;13.70;;;;;;;;;;4936644;29;20047;-91
2021/12/26 12:53:48;;;;;;;26.52;13.63;;;;;;;;;;4962645;28;20027;-91
2021/12/26 12:56:44;;;;;;;28.35;13.65;;;;;;;;;;4981365;28;20057;-90
2021/12/26 12:59:16;;;;;;;27.27;15.18;;;;;;;;;;4956575;28;20050;-90
2021/12/26 13:01:59;;;;;;;26.83;13.77;;;;;;;;;;4977778;28;20042;-93
2021/12/26 13:04:29;;;;;;;26.70;14.45;;;;;;;;;;4981029;28;20046;-89
2021/12/26 13:07:01;;;;;;;26.70;14.50;;;;;;;;;;4976937;28;20040;-89
2021/12/26 13:09:29;;;;;;;30.80;15.00;;;;;;;;;;4985507;28;20031;-90
2021/12/26 13:12:02;;;;;;;29.63;15.73;;;;;;;;;;5039013;22;20038;-88
2021/12/26 13:14:35;;;;;;;30.35;14.38;;;;;;;;;;5031582;28;20034;-93
2021/12/26 13:17:02;;;;;;;25.83;14.02;;;;;;;;;;5042678;28;20045;-88
2021/12/26 13:19:39;;;;;;;26.48;13.32;;;;;;;;;;5088482;22;20038;-90
2021/12/26 13:22:06;;;;;;;28.52;14.48;;;;;;;;;;5069872;22;20037;-89
2021/12/26 13:24:36;;;;;;;34.00;17.67;;;;;;;;;;5074274;28;20039;-87
2021/12/26 13:27:03;;;;;;;54.15;25.20;;;;;;;;;;5047898;28;20006;-89
2021/12/26 13:29:47;;;;;;;56.63;26.17;;;;;;;;;;5053495;28;20030;-93
2021/12/26 13:32:13;;;;;;;29.45;15.82;;;;;;;;;;5058804;28;20021;-92
2021/12/26 13:34:39;;;;;;;34.55;17.77;;;;;;;;;;5059286;28;20041;-92
2021/12/26 13:37:07;;;;;;;33.92;18.23;;;;;;;;;;5164124;22;20037;-92
2021/12/26 13:39:55;;;;;;;43.47;22.40;;;;;;;;;;5061179;28;20029;-92
2021/12/26 13:42:21;;;;;;;33.15;16.13;;;;;;;;;;5108049;22;20030;-90
2021/12/26 13:44:47;;;;;;;37.42;18.70;;;;;;;;;;5017934;28;20046;-89
2021/12/26 13:47:13;;;;;;;40.65;18.73;;;;;;;;;;5018083;28;20038;-91
2021/12/26 13:49:39;;;;;;;27.98;14.45;;;;;;;;;;5026560;28;20044;-92
2021/12/26 13:52:07;;;;;;;31.65;13.82;;;;;;;;;;5044190;28;20014;-93
2021/12/26 13:54:48;;;;;;;29.70;14.65;;;;;;;;;;5078192;22;20026;-91
2021/12/26 13:57:16;;;;;;;;;;;;;;;;;;5019410;28;20030;-91
2021/12/26 13:59:43;;;;;;;26.33;13.48;;;;;;;;;;5021467;28;19910;-88
2021/12/26 14:02:40;;;;;;;27.15;13.65;;;;;;;;;;5025818;28;20020;-90
2021/12/26 14:05:13;;;;;;;26.30;13.73;;;;;;;;;;5046454;28;20037;-92
2021/12/26 14:07:43;;;;;;;31.95;13.77;;;;;;;;;;5058845;28;20041;-87
2021/12/26 14:10:15;;;;;;;28.08;13.68;;;;;;;;;;5041384;28;20032;-90
2021/12/26 14:12:49;;;;;;;27.83;13.43;;;;;;;;;;5042307;28;20041;-91
2021/12/26 14:15:29;;;;;;;28.55;13.48;;;;;;;;;;5058315;28;20024;-92
2021/12/26 14:17:58;;;;;;;26.85;14.23;;;;;;;;;;5043635;28;20033;-91
2021/12/26 14:20:26;;;;;;;30.63;14.35;;;;;;;;;;5048706;28;20364;-91
2021/12/26 14:22:53;;;;;;;25.85;12.98;;;;;;;;;;5043118;28;20132;-92
2021/12/26 14:25:19;;;;;;;28.30;13.68;;;;;;;;;;5044041;28;20487;-88
2021/12/26 14:27:45;;;;;;;27.10;13.70;;;;;;;;;;5042239;28;20113;-92
2021/12/26 14:30:12;;;;;;;25.80;13.57;;;;;;;;;;5044616;28;20034;-91
2021/12/26 14:32:39;;;;;;;28.20;14.23;;;;;;;;;;5050395;28;20030;-90
2021/12/26 14:35:13;;;;;;;30.23;14.65;;;;;;;;;;5057030;28;20018;-91
2021/12/26 14:37:39;;;;;;;28.85;14.45;;;;;;;;;;5053706;28;20040;-93
2021/12/26 14:40:12;;;;;;;27.00;13.35;;;;;;;;;;5051619;28;20033;-90
2021/12/26 14:42:43;;;;;;;24.33;12.82;;;;;;;;;;5048017;28;20040;-91
2021/12/26 14:45:14;;;;;;;28.35;14.75;;;;;;;;;;5030058;28;20038;-88
2021/12/26 14:47:44;;;;;;;27.73;14.30;;;;;;;;;;5026291;28;20041;-90
2021/12/26 14:50:30;;;;;;;25.50;13.02;;;;;;;;;;5022765;28;20045;-92
2021/12/26 14:52:59;;;;;;;29.95;14.48;;;;;;;;;;5032229;28;20071;-89